Time;durP1;ratioP1;P1;durP2;ratioP2;P2;SDS_P1;SDS_P2;PMS_P1;PMS_P2;Temp;Humidity;BMP_temperature;BMP_pressure;BME280_temperature;BME280_humidity;BME280_pressure;Samples;Min_cycle;Max_cycle;Signal;HPM_P1;HPM_P2
2024/02/14 00:01:00;;;;;;;1.60;1.10;;;9.30;98.20;;;;;;6164383;23;20756;-85
2024/02/14 00:03:32;;;;;;;1.53;1.10;;;9.30;98.20;;;;;;6177377;23;20499;-85
2024/02/14 00:06:00;;;;;;;1.60;1.20;;;9.20;98.20;;;;;;6166832;23;20507;-84
2024/02/14 00:08:30;;;;;;;1.60;1.20;;;9.20;98.20;;;;;;6179093;23;20427;-85
2024/02/14 00:11:00;;;;;;;1.60;1.10;;;9.20;98.20;;;;;;6174283;23;20420;-84
2024/02/14 00:13:34;;;;;;;1.57;1.20;;;9.20;98.20;;;;;;6185519;23;20446;-85
2024/02/14 00:16:20;;;;;;;1.60;1.20;;;9.20;98.20;;;;;;6164348;23;20446;-85
2024/02/14 00:18:51;;;;;;;1.60;1.13;;;9.20;98.20;;;;;;6188015;23;20513;-85
2024/02/14 00:24:12;;;;;;;1.60;1.10;;;9.20;98.20;;;;;;6179244;23;20429;-85
2024/02/14 00:26:46;;;;;;;1.60;1.10;;;9.20;98.20;;;;;;6163882;23;20451;-84
2024/02/14 00:29:13;;;;;;;1.57;1.20;;;9.20;98.20;;;;;;6177203;23;20479;-84
2024/02/14 00:31:52;;;;;;;1.60;1.20;;;9.20;98.20;;;;;;6159077;23;20468;-85
2024/02/14 00:34:33;;;;;;;1.57;1.20;;;9.20;98.20;;;;;;6147428;23;20405;-85
2024/02/14 00:37:08;;;;;;;1.60;1.20;;;9.20;98.20;;;;;;6134274;23;20448;-84
2024/02/14 00:39:37;;;;;;;1.60;1.10;;;9.10;98.20;;;;;;6152103;23;20459;-84
2024/02/14 00:42:10;;;;;;;1.50;1.10;;;9.10;98.20;;;;;;6135014;23;20536;-84
2024/02/14 00:44:43;;;;;;;1.57;1.10;;;9.10;98.20;;;;;;6160263;23;20491;-84
2024/02/14 00:47:10;;;;;;;1.57;1.20;;;9.10;98.20;;;;;;6136137;23;20472;-86
2024/02/14 00:49:39;;;;;;;1.50;1.10;;;9.10;98.20;;;;;;6151539;23;20417;-85
2024/02/14 00:52:06;;;;;;;1.53;1.20;;;9.10;98.20;;;;;;6133381;23;21076;-85
2024/02/14 00:54:34;;;;;;;1.57;1.20;;;9.10;98.20;;;;;;6159180;23;20463;-85
2024/02/14 00:57:06;;;;;;;1.60;1.20;;;9.20;98.20;;;;;;6141895;23;20448;-84
2024/02/14 00:59:40;;;;;;;4.53;4.23;;;9.10;98.20;;;;;;6161669;23;20444;-85
2024/02/14 01:02:16;;;;;;;1.57;1.20;;;9.10;98.20;;;;;;6135944;23;20454;-84
2024/02/14 01:07:29;;;;;;;1.53;1.10;;;9.20;98.20;;;;;;6133212;23;20448;-85
2024/02/14 01:09:56;;;;;;;1.60;1.20;;;9.10;98.20;;;;;;6151044;23;20529;-84
2024/02/14 01:12:29;;;;;;;2.33;2.13;;;9.20;98.20;;;;;;6135510;23;20469;-85
2024/02/14 01:14:56;;;;;;;1.50;1.20;;;9.20;98.20;;;;;;6152190;23;20401;-85
2024/02/14 01:17:27;;;;;;;1.50;1.10;;;9.20;98.20;;;;;;6136648;23;20476;-84
2024/02/14 01:19:55;;;;;;;1.60;1.20;;;9.20;98.20;;;;;;6159155;23;20451;-85
2024/02/14 01:22:21;;;;;;;1.57;1.10;;;9.20;98.20;;;;;;6141571;23;20836;-87
2024/02/14 01:25:00;;;;;;;1.60;1.20;;;9.20;98.20;;;;;;6151880;23;20411;-85
2024/02/14 01:27:29;;;;;;;1.60;1.20;;;9.20;98.20;;;;;;6136552;23;20449;-84
2024/02/14 01:30:01;;;;;;;1.60;1.20;;;9.20;98.20;;;;;;6160921;23;20475;-84
2024/02/14 01:32:29;;;;;;;1.57;1.20;;;9.20;98.20;;;;;;6138088;23;20476;-85
2024/02/14 01:34:59;;;;;;;1.53;1.10;;;9.20;98.20;;;;;;6162015;23;20432;-85
2024/02/14 01:37:26;;;;;;;1.63;1.53;;;9.20;98.20;;;;;;6141467;23;20874;-85
2024/02/14 01:40:13;;;;;;;1.57;1.20;;;9.20;98.20;;;;;;6153440;23;20536;-84
2024/02/14 01:42:45;;;;;;;1.57;1.10;;;9.20;98.20;;;;;;6114572;23;20539;-84
2024/02/14 01:45:20;;;;;;;1.57;1.10;;;9.20;98.20;;;;;;6160824;23;20420;-85
2024/02/14 01:47:47;;;;;;;1.57;1.10;;;9.20;98.20;;;;;;6136254;23;20447;-85
2024/02/14 01:50:28;;;;;;;1.70;1.50;;;9.20;98.20;;;;;;6152532;23;20439;-86
2024/02/14 01:53:02;;;;;;;1.53;1.10;;;9.20;98.20;;;;;;6143736;23;20457;-84
2024/02/14 01:55:34;;;;;;;1.60;1.20;;;9.20;98.20;;;;;;6160381;23;20433;-84
2024/02/14 01:58:04;;;;;;;1.53;1.10;;;9.20;98.20;;;;;;6152863;23;20432;-83
2024/02/14 02:00:32;;;;;;;1.53;1.10;;;9.20;98.20;;;;;;6183693;23;20464;-84
2024/02/14 02:03:09;;;;;;;1.57;1.10;;;9.30;98.20;;;;;;6138421;23;20511;-85
2024/02/14 02:06:03;;;;;;;1.60;1.30;;;9.30;98.20;;;;;;6161620;23;20463;-85
2024/02/14 02:08:33;;;;;;;1.53;1.10;;;9.30;98.20;;;;;;6113517;23;20428;-85
2024/02/14 02:11:01;;;;;;;1.60;1.20;;;9.30;98.20;;;;;;6146638;23;20479;-85
2024/02/14 02:13:51;;;;;;;1.50;1.10;;;9.30;98.20;;;;;;6160665;23;21222;-85
2024/02/14 02:16:23;;;;;;;1.57;1.10;;;9.30;98.20;;;;;;6136135;23;20484;-84
2024/02/14 02:18:54;;;;;;;1.57;1.20;;;9.30;98.20;;;;;;6161856;23;20428;-84
2024/02/14 02:21:23;;;;;;;1.60;1.20;;;9.30;98.20;;;;;;6139015;23;20974;-85
2024/02/14 02:23:54;;;;;;;1.60;1.20;;;9.30;98.20;;;;;;6149355;23;20451;-84
2024/02/14 02:26:23;;;;;;;1.60;1.20;;;9.30;98.20;;;;;;6146444;23;20452;-85
2024/02/14 02:28:50;;;;;;;1.60;1.20;;;9.40;98.20;;;;;;6155252;23;20420;-85
2024/02/14 02:31:28;;;;;;;1.57;1.20;;;9.30;98.20;;;;;;6144889;23;20444;-86
2024/02/14 02:34:25;;;;;;;1.60;1.27;;;9.40;98.20;;;;;;6153914;23;20401;-84
2024/02/14 02:37:06;;;;;;;1.60;1.23;;;9.40;98.20;;;;;;6156999;23;21010;-85
2024/02/14 02:39:40;;;;;;;1.60;1.20;;;9.40;98.20;;;;;;6160208;23;20933;-85
2024/02/14 02:42:24;;;;;;;1.60;1.20;;;9.40;98.20;;;;;;6130495;23;20530;-85
2024/02/14 02:44:54;;;;;;;1.60;1.10;;;9.40;98.20;;;;;;6122448;23;20905;-85
2024/02/14 02:47:29;;;;;;;1.53;1.10;;;9.40;98.20;;;;;;6138605;23;20532;-85
2024/02/14 02:50:02;;;;;;;1.53;1.13;;;9.40;98.20;;;;;;6150066;23;20396;-85
2024/02/14 02:52:31;;;;;;;1.50;1.10;;;9.40;98.20;;;;;;6134219;23;20512;-85
2024/02/14 02:55:07;;;;;;;1.60;1.20;;;9.40;98.20;;;;;;6161428;23;20436;-85
2024/02/14 02:57:36;;;;;;;1.57;1.10;;;9.40;98.20;;;;;;6137703;23;21213;-86
2024/02/14 03:00:13;;;;;;;1.57;1.10;;;9.40;98.20;;;;;;6161105;23;20448;-85
2024/02/14 03:02:56;;;;;;;1.60;1.10;;;9.50;98.20;;;;;;6136221;23;20515;-85
2024/02/14 03:05:27;;;;;;;1.57;1.10;;;9.50;98.20;;;;;;6161260;23;20452;-85
2024/02/14 03:08:02;;;;;;;1.60;1.10;;;9.50;98.20;;;;;;6137484;23;20463;-85
2024/02/14 03:10:48;;;;;;;1.57;1.10;;;9.50;98.20;;;;;;6150692;23;20409;-85
2024/02/14 03:13:19;;;;;;;1.60;1.20;;;9.50;98.20;;;;;;6110569;23;20985;-86
2024/02/14 03:18:34;;;;;;;1.60;1.20;;;9.50;98.20;;;;;;6114150;23;20956;-85
2024/02/14 03:21:23;;;;;;;1.60;1.20;;;9.60;98.20;;;;;;6151329;23;20428;-86
2024/02/14 03:23:50;;;;;;;1.50;1.10;;;9.60;98.20;;;;;;6153924;23;20450;-85
2024/02/14 03:26:21;;;;;;;1.60;1.30;;;9.70;98.20;;;;;;6148647;23;20432;-86
2024/02/14 03:28:54;;;;;;;1.60;1.20;;;9.80;98.20;;;;;;6153043;23;20420;-85
2024/02/14 03:31:26;;;;;;;1.60;1.20;;;9.80;98.20;;;;;;6139019;23;20855;-86
2024/02/14 03:33:53;;;;;;;1.60;1.37;;;9.90;98.20;;;;;;6160193;23;20431;-85
2024/02/14 03:36:34;;;;;;;1.60;1.20;;;10.00;98.20;;;;;;6153670;23;20452;-86
2024/02/14 03:39:06;;;;;;;1.60;1.10;;;10.00;98.20;;;;;;6172151;23;20447;-85
2024/02/14 03:41:37;;;;;;;1.57;1.10;;;10.00;98.20;;;;;;6138975;23;20455;-86
2024/02/14 03:44:04;;;;;;;1.80;1.50;;;10.00;98.20;;;;;;6154239;23;20465;-85
2024/02/14 03:46:31;;;;;;;1.60;1.20;;;10.10;98.20;;;;;;6148246;23;20448;-85
2024/02/14 03:48:58;;;;;;;1.60;1.20;;;10.10;98.20;;;;;;6162933;23;20849;-85
2024/02/14 03:51:25;;;;;;;1.60;1.10;;;10.10;98.20;;;;;;6147861;23;20445;-86
2024/02/14 03:53:55;;;;;;;1.53;1.10;;;10.10;98.20;;;;;;6166233;23;20440;-84
2024/02/14 03:56:32;;;;;;;1.60;1.20;;;10.20;98.20;;;;;;6150249;23;20524;-85
2024/02/14 03:59:07;;;;;;;1.53;1.10;;;10.20;98.20;;;;;;6153863;23;20408;-84
2024/02/14 04:01:34;;;;;;;1.60;1.20;;;10.20;98.20;;;;;;6146304;23;20477;-86
2024/02/14 04:04:01;;;;;;;1.60;1.10;;;10.20;98.20;;;;;;6155845;23;20912;-83
2024/02/14 04:06:31;;;;;;;1.50;1.10;;;10.30;98.20;;;;;;6142788;23;20448;-84
2024/02/14 04:09:16;;;;;;;1.60;1.17;;;10.30;98.20;;;;;;6166718;23;20427;-84
2024/02/14 04:14:48;;;;;;;1.53;1.10;;;10.30;98.20;;;;;;6217728;22;20465;-85
2024/02/14 04:17:15;;;;;;;1.57;1.10;;;10.30;98.20;;;;;;6205690;23;20905;-84
2024/02/14 04:19:42;;;;;;;1.60;1.10;;;10.30;98.20;;;;;;6230983;23;20466;-83
2024/02/14 04:22:09;;;;;;;1.57;1.10;;;10.30;98.20;;;;;;6216209;23;20440;-83
2024/02/14 04:24:36;;;;;;;1.60;1.13;;;10.30;98.20;;;;;;6202920;23;20510;-84
2024/02/14 04:27:08;;;;;;;1.57;1.10;;;10.30;98.20;;;;;;6172250;23;20753;-84
2024/02/14 04:29:38;;;;;;;1.57;1.10;;;10.30;98.20;;;;;;6188148;23;20462;-84
2024/02/14 04:32:12;;;;;;;1.53;1.00;;;10.30;98.20;;;;;;6174580;23;21748;-83
2024/02/14 04:34:43;;;;;;;1.60;1.33;;;10.30;98.20;;;;;;6165697;23;20420;-84
2024/02/14 04:37:13;;;;;;;1.60;1.20;;;10.30;98.20;;;;;;6146048;23;20508;-83
2024/02/14 04:39:40;;;;;;;1.60;1.10;;;10.40;98.20;;;;;;6155419;23;20512;-84
2024/02/14 04:42:07;;;;;;;1.60;1.20;;;10.30;98.20;;;;;;6136053;23;20454;-83
2024/02/14 04:44:35;;;;;;;1.53;1.10;;;10.40;98.20;;;;;;6135481;23;20422;-84
2024/02/14 04:47:09;;;;;;;1.60;1.10;;;10.40;98.20;;;;;;6132003;23;20506;-84
2024/02/14 04:49:39;;;;;;;1.53;1.10;;;10.40;98.20;;;;;;6134806;23;20410;-84
2024/02/14 04:52:07;;;;;;;1.53;1.10;;;10.40;98.20;;;;;;6127108;23;20484;-84
2024/02/14 04:54:34;;;;;;;1.57;1.10;;;10.40;98.20;;;;;;6143206;23;20476;-84
2024/02/14 04:57:01;;;;;;;1.60;1.10;;;10.40;98.20;;;;;;6126958;23;21539;-83
2024/02/14 04:59:28;;;;;;;1.57;1.20;;;10.40;98.20;;;;;;6136185;23;20452;-84
2024/02/14 05:01:58;;;;;;;1.53;1.10;;;10.40;98.20;;;;;;6129987;23;20459;-84
2024/02/14 05:04:25;;;;;;;1.60;1.10;;;10.40;98.20;;;;;;6145001;23;20773;-85
2024/02/14 05:06:57;;;;;;;1.57;1.07;;;10.40;98.20;;;;;;6127675;23;20445;-84
2024/02/14 05:09:23;;;;;;;1.60;1.10;;;10.40;98.20;;;;;;6136215;23;20949;-84
2024/02/14 05:11:50;;;;;;;1.50;1.00;;;10.40;98.20;;;;;;6124366;23;20452;-84
2024/02/14 05:14:17;;;;;;;1.57;1.10;;;10.40;98.20;;;;;;6148247;23;20535;-84
2024/02/14 05:16:45;;;;;;;1.57;1.10;;;10.40;98.20;;;;;;6128213;23;20453;-84
2024/02/14 05:19:11;;;;;;;1.57;1.10;;;10.40;98.20;;;;;;6147527;23;20418;-84
2024/02/14 05:21:41;;;;;;;1.57;1.10;;;10.40;98.20;;;;;;6122628;23;20468;-86
2024/02/14 05:24:12;;;;;;;1.60;1.10;;;10.40;98.20;;;;;;6149450;23;20422;-84
2024/02/14 05:26:52;;;;;;;1.57;1.10;;;10.40;98.20;;;;;;6120054;23;20448;-84
2024/02/14 05:29:22;;;;;;;1.60;1.10;;;10.40;98.20;;;;;;6149194;23;20431;-84
2024/02/14 05:31:55;;;;;;;1.60;1.20;;;10.40;98.20;;;;;;6129158;23;20444;-84
2024/02/14 05:34:24;;;;;;;1.57;1.20;;;10.40;98.20;;;;;;6144040;23;20906;-86
2024/02/14 05:36:52;;;;;;;1.50;1.07;;;10.30;98.20;;;;;;6127810;23;20455;-86
2024/02/14 05:39:28;;;;;;;1.60;1.20;;;10.30;98.20;;;;;;6144601;23;20421;-86
2024/02/14 05:41:55;;;;;;;1.60;1.20;;;10.30;98.20;;;;;;6130376;23;20531;-85
2024/02/14 05:44:22;;;;;;;1.50;1.10;;;10.30;98.20;;;;;;6143865;23;20406;-85
2024/02/14 05:46:51;;;;;;;1.60;1.10;;;10.30;98.20;;;;;;6124714;23;20453;-85
2024/02/14 05:49:21;;;;;;;1.57;1.10;;;10.30;98.20;;;;;;6144436;23;20504;-86
2024/02/14 05:51:52;;;;;;;1.60;1.10;;;10.30;98.20;;;;;;6125558;23;20456;-85
2024/02/14 05:54:23;;;;;;;1.57;1.10;;;10.30;98.20;;;;;;6136817;23;20426;-84
2024/02/14 05:56:52;;;;;;;1.53;1.10;;;10.30;98.20;;;;;;6127009;23;20540;-85
2024/02/14 05:59:19;;;;;;;1.57;1.10;;;10.30;98.20;;;;;;6147220;23;20485;-85
2024/02/14 06:01:46;;;;;;;1.60;1.10;;;10.30;98.20;;;;;;6127202;23;20464;-85
2024/02/14 06:04:18;;;;;;;1.53;1.10;;;10.30;98.20;;;;;;6146260;23;20772;-86
2024/02/14 06:06:56;;;;;;;1.57;1.10;;;10.30;98.20;;;;;;6125287;23;20482;-86
2024/02/14 06:09:24;;;;;;;1.50;1.10;;;10.30;98.20;;;;;;6142486;23;20603;-86
2024/02/14 06:11:54;;;;;;;1.60;1.20;;;10.30;98.20;;;;;;6125060;23;20508;-86
2024/02/14 06:14:30;;;;;;;1.57;1.10;;;10.30;98.20;;;;;;6142953;23;20429;-86
2024/02/14 06:17:06;;;;;;;1.57;1.10;;;10.30;98.20;;;;;;6126680;23;20448;-86
2024/02/14 06:19:47;;;;;;;1.53;1.10;;;10.30;98.20;;;;;;6149867;23;20818;-86
2024/02/14 06:25:09;;;;;;;1.60;1.20;;;10.30;98.20;;;;;;6114289;23;20440;-86
2024/02/14 06:27:37;;;;;;;1.57;1.10;;;10.30;98.20;;;;;;6129722;23;21024;-86
2024/02/14 06:30:10;;;;;;;1.57;1.13;;;10.30;98.20;;;;;;6137485;23;20754;-86
2024/02/14 06:32:37;;;;;;;1.53;1.00;;;10.30;98.20;;;;;;6131338;23;20453;-86
2024/02/14 06:38:50;;;;;;;1.60;1.10;;;10.40;98.20;;;;;;5990008;23;20545;-87
2024/02/14 06:41:23;;;;;;;1.57;1.10;;;10.40;98.20;;;;;;6124972;23;20494;-86
2024/02/14 06:43:52;;;;;;;1.60;1.30;;;10.40;98.20;;;;;;6158520;23;20564;-86
2024/02/14 06:46:19;;;;;;;1.53;1.10;;;10.40;98.20;;;;;;6145723;23;20437;-84
2024/02/14 06:48:55;;;;;;;1.57;1.10;;;10.40;98.20;;;;;;6161741;23;20414;-86
2024/02/14 06:51:31;;;;;;;1.60;1.10;;;10.40;98.20;;;;;;6126545;23;20479;-87
2024/02/14 06:54:01;;;;;;;1.60;1.17;;;10.50;98.20;;;;;;6149109;23;20413;-85
2024/02/14 06:56:30;;;;;;;1.60;1.20;;;10.50;98.20;;;;;;6127782;23;20503;-85
2024/02/14 06:58:59;;;;;;;1.60;1.20;;;10.50;98.20;;;;;;6149636;23;20818;-85
2024/02/14 07:01:31;;;;;;;1.57;1.10;;;10.50;98.20;;;;;;6118452;23;20464;-86
2024/02/14 07:04:04;;;;;;;1.57;1.00;;;10.50;98.20;;;;;;6150951;23;20421;-85
2024/02/14 07:06:31;;;;;;;1.60;1.10;;;10.60;98.20;;;;;;6129720;23;20448;-86
2024/02/14 07:08:58;;;;;;;1.57;1.10;;;10.60;98.20;;;;;;6153401;23;20476;-85
2024/02/14 07:11:25;;;;;;;1.57;1.10;;;10.60;98.20;;;;;;6122647;23;20528;-84
2024/02/14 07:14:01;;;;;;;1.57;1.10;;;10.60;98.20;;;;;;6150890;23;20434;-85
2024/02/14 07:16:28;;;;;;;1.50;1.10;;;10.70;98.20;;;;;;6121543;23;20563;-86
2024/02/14 07:18:55;;;;;;;1.60;1.10;;;10.70;98.20;;;;;;6154827;23;20914;-85
2024/02/14 07:21:22;;;;;;;1.53;1.10;;;10.70;98.20;;;;;;6122990;23;20993;-85
2024/02/14 07:23:49;;;;;;;1.60;1.10;;;10.70;98.20;;;;;;6146332;23;20441;-85
2024/02/14 07:26:16;;;;;;;1.57;1.10;;;10.70;98.20;;;;;;6123079;23;20448;-86
2024/02/14 07:28:44;;;;;;;1.57;1.10;;;10.80;98.20;;;;;;6148823;23;20457;-82
2024/02/14 07:31:15;;;;;;;1.60;1.20;;;10.80;98.20;;;;;;6128201;23;20472;-82
2024/02/14 07:33:43;;;;;;;1.60;1.10;;;10.80;98.20;;;;;;6147057;23;20469;-85
2024/02/14 07:36:09;;;;;;;1.53;1.10;;;10.80;98.20;;;;;;6120644;23;20468;-85
2024/02/14 07:38:36;;;;;;;1.60;1.10;;;10.80;98.20;;;;;;6158489;23;20932;-85
2024/02/14 07:41:03;;;;;;;1.60;1.20;;;10.90;98.20;;;;;;6117590;23;20449;-86
2024/02/14 07:43:33;;;;;;;1.53;1.10;;;10.90;98.20;;;;;;6148868;23;20442;-83
2024/02/14 07:46:00;;;;;;;1.60;1.10;;;10.90;98.20;;;;;;6130216;23;20417;-85
2024/02/14 07:48:31;;;;;;;1.53;1.10;;;10.90;98.20;;;;;;6160282;23;20422;-85
2024/02/14 07:50:59;;;;;;;1.53;1.03;;;11.00;98.20;;;;;;6126484;23;20493;-85
2024/02/14 07:53:43;;;;;;;1.57;1.10;;;11.00;98.20;;;;;;6156732;23;20442;-84
2024/02/14 07:56:10;;;;;;;1.60;1.20;;;11.00;98.20;;;;;;6127713;23;20912;-85
2024/02/14 07:58:37;;;;;;;1.60;1.10;;;11.10;98.20;;;;;;6157768;23;20540;-85
2024/02/14 08:01:04;;;;;;;1.57;1.10;;;11.10;98.20;;;;;;6118347;23;20485;-83
2024/02/14 08:03:36;;;;;;;1.60;1.20;;;11.10;98.20;;;;;;6151058;23;20437;-85
2024/02/14 08:06:03;;;;;;;1.60;1.20;;;11.20;98.20;;;;;;6129929;23;20441;-85
2024/02/14 08:08:30;;;;;;;1.60;1.10;;;11.20;98.20;;;;;;6164010;23;20616;-85
2024/02/14 08:10:57;;;;;;;1.53;1.10;;;11.20;98.20;;;;;;6117970;23;20418;-85
2024/02/14 08:13:25;;;;;;;1.53;1.10;;;11.30;98.20;;;;;;6147835;23;20464;-84
2024/02/14 08:15:54;;;;;;;1.60;1.20;;;11.30;98.20;;;;;;6142741;23;20409;-86
2024/02/14 08:18:39;;;;;;;1.53;1.10;;;11.30;98.20;;;;;;6138474;23;20433;-84
2024/02/14 08:21:35;;;;;;;1.60;1.10;;;11.30;98.20;;;;;;6128751;23;20525;-84
2024/02/14 08:24:02;;;;;;;1.60;1.10;;;11.30;98.20;;;;;;6155606;23;20747;-83
2024/02/14 08:26:32;;;;;;;1.60;1.10;;;11.40;98.20;;;;;;6124266;23;20455;-84
2024/02/14 08:28:59;;;;;;;1.60;1.00;;;11.40;98.20;;;;;;6156340;23;20759;-84
2024/02/14 08:31:26;;;;;;;1.60;1.10;;;11.40;98.20;;;;;;6130613;23;20444;-84
2024/02/14 08:33:53;;;;;;;1.60;1.10;;;11.50;98.20;;;;;;6145836;23;20441;-84
2024/02/14 08:36:20;;;;;;;1.60;1.03;;;11.50;98.20;;;;;;6121820;23;20444;-84
2024/02/14 08:38:50;;;;;;;1.53;1.03;;;11.50;98.20;;;;;;6146437;23;20468;-84
2024/02/14 08:41:18;;;;;;;1.60;1.03;;;11.60;98.20;;;;;;6122762;23;20524;-85
2024/02/14 08:43:48;;;;;;;1.60;1.00;;;11.50;98.20;;;;;;6156242;23;20430;-85
2024/02/14 08:46:18;;;;;;;1.60;1.10;;;11.60;98.20;;;;;;6121804;23;20448;-84
2024/02/14 08:48:46;;;;;;;1.57;1.10;;;11.60;98.20;;;;;;6149407;23;20429;-84
2024/02/14 08:51:20;;;;;;;1.60;1.10;;;11.60;98.20;;;;;;6133143;23;20553;-84
2024/02/14 08:53:54;;;;;;;1.60;1.10;;;11.60;98.20;;;;;;6146688;23;20453;-85
2024/02/14 08:56:24;;;;;;;1.57;1.10;;;11.60;98.20;;;;;;6132645;23;20615;-84
2024/02/14 08:58:54;;;;;;;1.60;1.10;;;11.60;98.20;;;;;;6157147;23;20422;-84
2024/02/14 09:01:21;;;;;;;1.60;1.10;;;11.60;98.20;;;;;;6131757;23;20448;-84
2024/02/14 09:03:48;;;;;;;1.60;1.13;;;11.60;98.20;;;;;;6152320;23;20442;-84
2024/02/14 09:06:33;;;;;;;1.60;1.10;;;11.60;98.20;;;;;;6140740;23;20425;-84
2024/02/14 09:09:15;;;;;;;1.60;1.00;;;11.60;98.20;;;;;;6134262;23;20461;-85
2024/02/14 09:11:42;;;;;;;1.53;1.00;;;11.70;98.20;;;;;;6131281;23;20456;-84
2024/02/14 09:14:17;;;;;;;1.57;1.00;;;11.70;98.20;;;;;;6165660;23;20414;-84
2024/02/14 09:16:48;;;;;;;1.57;1.10;;;11.80;98.20;;;;;;6142146;23;20491;-84
2024/02/14 09:19:17;;;;;;;1.57;1.00;;;11.80;98.20;;;;;;6149351;23;20436;-84
2024/02/14 09:22:33;;;;;;;1.50;1.03;;;11.90;98.20;;;;;;6131789;23;20973;-84
2024/02/14 09:25:04;;;;;;;1.60;1.10;;;12.00;98.20;;;;;;6145234;23;20477;-85
2024/02/14 09:27:31;;;;;;;1.60;1.10;;;12.10;98.20;;;;;;6138997;23;20444;-85
2024/02/14 09:29:57;;;;;;;1.57;1.00;;;12.20;98.20;;;;;;6132093;23;20421;-85
2024/02/14 09:32:24;;;;;;;1.60;1.07;;;12.30;98.20;;;;;;6133077;23;20826;-86
2024/02/14 09:34:51;;;;;;;1.60;1.00;;;12.40;98.20;;;;;;6134719;23;20428;-85
2024/02/14 09:37:24;;;;;;;1.57;1.00;;;12.50;98.20;;;;;;6136253;23;20441;-85
2024/02/14 09:40:33;;;;;;;1.53;1.00;;;12.50;98.20;;;;;;6147178;23;20414;-85
2024/02/14 09:43:14;;;;;;;1.57;1.00;;;12.60;98.20;;;;;;6128331;22;20468;-84
2024/02/14 09:45:56;;;;;;;1.60;1.10;;;12.60;98.20;;;;;;6231875;23;20470;-84
2024/02/14 09:48:49;;;;;;;1.60;1.10;;;12.60;98.20;;;;;;6186589;23;20427;-85
2024/02/14 09:51:45;;;;;;;1.60;1.10;;;12.60;98.20;;;;;;6216134;23;20461;-84
2024/02/14 09:54:27;;;;;;;1.57;1.10;;;12.70;98.20;;;;;;6142348;23;20458;-85
2024/02/14 09:57:21;;;;;;;1.60;1.10;;;12.70;98.20;;;;;;6183531;23;20471;-85
2024/02/14 10:03:11;;;;;;;1.53;1.00;;;12.70;98.20;;;;;;6054462;23;20639;-84
2024/02/14 10:05:42;;;;;;;1.60;1.10;;;12.70;98.20;;;;;;6081863;23;20447;-84
2024/02/14 10:08:16;;;;;;;1.53;1.10;;;12.80;98.20;;;;;;6176569;23;20452;-84
2024/02/14 10:10:46;;;;;;;1.60;1.00;;;12.80;98.20;;;;;;6199568;23;20416;-85
2024/02/14 10:27:00;;;;;;;1.53;1.00;;;12.80;98.20;;;;;;6121262;23;20494;-82
2024/02/14 10:29:44;;;;;;;1.60;1.00;;;12.80;98.20;;;;;;6201193;23;20425;-84
2024/02/14 10:32:54;;;;;;;1.57;1.00;;;12.80;98.20;;;;;;6178387;23;21067;-85
2024/02/14 10:35:41;;;;;;;1.53;1.00;;;12.80;98.20;;;;;;6203092;23;20422;-84
2024/02/14 10:42:03;;;;;;;;;;;;;;;;;;;;;
2024/02/14 10:48:34;;;;;;;1.57;1.00;;;13.00;98.20;;;;;;6076819;23;20460;-84
2024/02/14 10:51:20;;;;;;;1.60;1.20;;;13.00;98.20;;;;;;6118055;23;20655;-85
2024/02/14 11:00:27;;;;;;;1.60;1.00;;;13.00;98.20;;;;;;6108408;23;20377;-85
2024/02/14 11:14:23;;;;;;;1.60;1.10;;;12.80;98.20;;;;;;6219166;22;20439;-82
2024/02/14 11:26:23;;;;;;;1.53;1.00;;;13.10;98.20;;;;;;6180791;23;20452;-85
2024/02/14 11:29:02;;;;;;;2.53;1.93;;;13.30;98.20;;;;;;6200763;23;20637;-86
2024/02/14 11:34:28;;;;;;;1.60;1.00;;;13.50;98.20;;;;;;6178653;23;20554;-86
2024/02/14 11:36:55;;;;;;;1.60;1.00;;;13.60;98.20;;;;;;6172796;23;20448;-86
2024/02/14 11:39:22;;;;;;;1.60;1.00;;;13.60;98.20;;;;;;6188605;23;20500;-85
2024/02/14 11:41:48;;;;;;;1.57;1.00;;;13.70;98.20;;;;;;6171620;23;20475;-84
2024/02/14 11:44:23;;;;;;;1.60;1.07;;;13.70;98.20;;;;;;6202471;23;20503;-85
2024/02/14 11:47:07;;;;;;;1.57;0.90;;;13.70;98.20;;;;;;6191287;23;20431;-85
2024/02/14 11:49:34;;;;;;;1.53;0.97;;;13.80;98.20;;;;;;6200249;23;20443;-83
2024/02/14 11:52:01;;;;;;;1.57;1.00;;;13.70;98.20;;;;;;6173975;23;20972;-84
2024/02/14 11:54:28;;;;;;;1.53;1.00;;;13.70;98.20;;;;;;6188915;23;20422;-84
2024/02/14 11:56:57;;;;;;;1.60;1.10;;;13.70;98.20;;;;;;6172510;23;20522;-86
2024/02/14 11:59:24;;;;;;;1.60;1.10;;;13.70;98.20;;;;;;6194123;23;20486;-86
2024/02/14 12:01:57;;;;;;;1.60;1.00;;;13.70;98.20;;;;;;6178125;23;20472;-89
2024/02/14 12:04:26;;;;;;;1.60;1.10;;;13.70;98.20;;;;;;6201390;23;20897;-85
2024/02/14 12:07:03;;;;;;;1.60;1.03;;;13.60;98.20;;;;;;6173167;23;20459;-86
2024/02/14 12:09:31;;;;;;;1.60;1.10;;;13.60;98.20;;;;;;6194480;23;20427;-86
2024/02/14 12:11:58;;;;;;;1.60;1.00;;;13.60;98.20;;;;;;6172005;23;20550;-85
2024/02/14 12:14:29;;;;;;;1.60;1.03;;;13.50;98.20;;;;;;6184734;23;20490;-85
2024/02/14 12:17:00;;;;;;;1.50;1.00;;;13.50;98.20;;;;;;6172664;23;20526;-85
2024/02/14 12:19:40;;;;;;;1.57;1.00;;;13.50;98.20;;;;;;6195505;23;20431;-85
2024/02/14 12:24:52;;;;;;;1.53;1.00;;;13.50;98.20;;;;;;6195753;23;20451;-85
2024/02/14 12:27:19;;;;;;;1.57;1.00;;;13.50;98.20;;;;;;6203150;23;20462;-86
2024/02/14 12:29:50;;;;;;;1.53;1.00;;;13.50;98.20;;;;;;6202334;23;20972;-86
2024/02/14 12:34:57;;;;;;;1.57;1.00;;;13.40;98.20;;;;;;6165793;22;20493;-85
2024/02/14 12:38:20;;;;;;;1.53;1.00;;;13.40;98.20;;;;;;6185538;23;20446;-86
2024/02/14 12:41:16;;;;;;;1.60;1.10;;;13.40;98.20;;;;;;6152593;23;20818;-88
2024/02/14 12:43:45;;;;;;;1.60;1.10;;;13.40;98.20;;;;;;6182137;23;20469;-87
2024/02/14 12:46:48;;;;;;;1.53;1.00;;;13.40;98.20;;;;;;6133349;23;20459;-87
2024/02/14 12:49:15;;;;;;;1.50;1.00;;;13.30;98.20;;;;;;6166005;23;20513;-87
2024/02/14 12:54:51;;;;;;;1.57;1.00;;;13.30;98.20;;;;;;6135604;23;20818;-87
2024/02/14 13:00:44;;;;;;;1.57;1.00;;;13.40;98.20;;;;;;6113638;23;20413;-86
2024/02/14 13:06:26;;;;;;;1.57;0.90;;;13.50;98.20;;;;;;6176476;22;20955;-88
2024/02/14 13:09:16;;;;;;;1.60;1.07;;;13.50;98.20;;;;;;6194137;23;20920;-85
2024/02/14 13:12:15;;;;;;;1.53;1.00;;;13.50;98.20;;;;;;6195715;23;20745;-86
2024/02/14 13:14:48;;;;;;;1.57;1.03;;;13.50;98.20;;;;;;6197577;23;20423;-88
2024/02/14 13:17:48;;;;;;;1.60;1.10;;;13.50;98.20;;;;;;6202350;23;20510;-87
2024/02/14 13:20:45;;;;;;;1.60;1.00;;;13.60;98.20;;;;;;6103909;23;20430;-83
2024/02/14 14:45:31;;;;;;;1.53;1.00;;;12.80;98.20;;;;;;6060936;23;20543;-81
2024/02/14 14:54:44;;;;;;;1.60;1.10;;;12.80;98.20;;;;;;6217481;22;20459;-84
2024/02/14 15:01:13;;;;;;;1.60;1.10;;;12.70;98.20;;;;;;6093123;23;20407;-83
2024/02/14 15:03:59;;;;;;;1.60;1.10;;;12.70;98.20;;;;;;6087118;23;20474;-82
2024/02/14 15:21:22;;;;;;;1.60;1.10;;;12.50;98.20;;;;;;6215017;22;20497;-83
2024/02/14 15:23:49;;;;;;;1.60;1.10;;;12.50;98.20;;;;;;6223482;23;20450;-83
2024/02/14 15:26:23;;;;;;;1.60;1.00;;;12.50;98.20;;;;;;6212583;23;20454;-84
2024/02/14 15:28:57;;;;;;;1.60;1.00;;;12.50;98.20;;;;;;6222682;23;20410;-83
2024/02/14 15:48:19;;;;;;;1.50;1.00;;;12.50;98.20;;;;;;6083885;23;20416;-87
2024/02/14 16:05:08;;;;;;;1.60;1.10;;;12.40;98.20;;;;;;6210812;22;20461;-84
2024/02/14 16:07:35;;;;;;;1.60;1.20;;;12.40;98.20;;;;;;6225280;23;20819;-82
2024/02/14 16:10:02;;;;;;;1.57;1.00;;;12.40;98.20;;;;;;6219216;23;20425;-81
2024/02/14 16:12:29;;;;;;;1.53;1.00;;;12.40;98.20;;;;;;6216075;23;20521;-82
2024/02/14 16:15:23;;;;;;;1.60;1.10;;;12.40;98.20;;;;;;6214636;23;20419;-84
2024/02/14 16:18:27;;;;;;;1.60;1.00;;;12.40;98.20;;;;;;6102562;23;20419;-85
2024/02/14 16:21:22;;;;;;;1.60;1.00;;;12.30;98.20;;;;;;6106232;23;20429;-84
2024/02/14 16:24:26;;;;;;;1.60;1.10;;;12.40;98.20;;;;;;6226851;23;20446;-84
2024/02/14 16:26:53;;;;;;;1.53;1.00;;;12.40;98.20;;;;;;6212662;23;20422;-83
2024/02/14 16:29:20;;;;;;;1.60;1.10;;;12.40;98.20;;;;;;6225762;23;20418;-84
2024/02/14 16:31:52;;;;;;;1.50;1.00;;;12.40;98.20;;;;;;6225746;23;20556;-84
2024/02/14 16:34:25;;;;;;;1.50;1.00;;;12.40;98.20;;;;;;6227444;23;20431;-84
2024/02/14 16:36:54;;;;;;;1.60;1.20;;;12.40;98.20;;;;;;6201864;23;20474;-84
2024/02/14 16:39:21;;;;;;;1.60;1.20;;;12.50;98.20;;;;;;6219766;23;20504;-83
2024/02/14 16:41:53;;;;;;;1.57;1.07;;;12.50;98.20;;;;;;6211986;23;20455;-84
2024/02/14 16:44:21;;;;;;;1.60;1.10;;;12.50;98.20;;;;;;6222348;23;20431;-84
2024/02/14 16:46:58;;;;;;;1.60;1.20;;;12.50;98.20;;;;;;6226788;23;20462;-83
2024/02/14 16:49:28;;;;;;;1.60;1.00;;;12.50;98.20;;;;;;6240364;23;20593;-83
2024/02/14 16:51:56;;;;;;;1.60;1.10;;;12.50;98.20;;;;;;6206449;23;20481;-83
2024/02/14 16:54:25;;;;;;;1.50;1.00;;;12.50;98.20;;;;;;6228805;23;20411;-83
2024/02/14 16:57:04;;;;;;;1.60;1.00;;;12.50;98.20;;;;;;6207842;23;20462;-83
2024/02/14 16:59:34;;;;;;;1.60;1.00;;;12.50;98.20;;;;;;6231309;23;20418;-85
2024/02/14 17:21:10;;;;;;;1.60;1.20;;;12.60;98.20;;;;;;6195389;23;20821;-86
2024/02/14 17:23:53;;;;;;;1.60;1.10;;;12.50;98.20;;;;;;6199788;23;20439;-86
2024/02/14 17:26:46;;;;;;;1.60;1.10;;;12.60;98.20;;;;;;6177626;23;20444;-86